sensor_id;sensor_type;location;lat;lon;timestamp;P1;durP1;ratioP1;P2;durP2;ratioP2
53646;SDS011;39550;52.230;5.194;2023-05-25T00:02:01;6.40;;;2.85;;
53646;SDS011;39550;52.230;5.194;2023-05-25T00:04:28;5.47;;;3.13;;
53646;SDS011;39550;52.230;5.194;2023-05-25T00:06:58;7.47;;;3.30;;
53646;SDS011;39550;52.230;5.194;2023-05-25T00:09:24;7.00;;;3.40;;
53646;SDS011;39550;52.230;5.194;2023-05-25T00:11:50;5.68;;;3.30;;
53646;SDS011;39550;52.230;5.194;2023-05-25T00:14:16;7.07;;;3.40;;
53646;SDS011;39550;52.230;5.194;2023-05-25T00:16:41;8.50;;;3.35;;
53646;SDS011;39550;52.230;5.194;2023-05-25T00:19:08;7.05;;;3.08;;
53646;SDS011;39550;52.230;5.194;2023-05-25T00:21:35;7.05;;;3.42;;
53646;SDS011;39550;52.230;5.194;2023-05-25T00:24:02;6.43;;;3.55;;
53646;SDS011;39550;52.230;5.194;2023-05-25T00:26:28;7.20;;;3.50;;
53646;SDS011;39550;52.230;5.194;2023-05-25T00:28:54;5.07;;;2.70;;
53646;SDS011;39550;52.230;5.194;2023-05-25T00:31:19;5.60;;;2.92;;
53646;SDS011;39550;52.230;5.194;2023-05-25T00:33:44;6.82;;;3.42;;
53646;SDS011;39550;52.230;5.194;2023-05-25T00:36:10;5.60;;;3.45;;
53646;SDS011;39550;52.230;5.194;2023-05-25T00:38:35;6.80;;;3.20;;
53646;SDS011;39550;52.230;5.194;2023-05-25T00:41:00;6.20;;;3.35;;
53646;SDS011;39550;52.230;5.194;2023-05-25T00:43:26;5.85;;;2.97;;
53646;SDS011;39550;52.230;5.194;2023-05-25T00:45:51;6.03;;;2.90;;
53646;SDS011;39550;52.230;5.194;2023-05-25T00:48:17;6.05;;;3.20;;
53646;SDS011;39550;52.230;5.194;2023-05-25T00:50:43;5.57;;;3.00;;
53646;SDS011;39550;52.230;5.194;2023-05-25T00:53:10;4.50;;;3.05;;
53646;SDS011;39550;52.230;5.194;2023-05-25T00:55:43;6.43;;;3.40;;
53646;SDS011;39550;52.230;5.194;2023-05-25T00:58:16;6.57;;;3.55;;
53646;SDS011;39550;52.230;5.194;2023-05-25T01:00:44;6.50;;;3.13;;
53646;SDS011;39550;52.230;5.194;2023-05-25T01:03:11;6.60;;;3.45;;
53646;SDS011;39550;52.230;5.194;2023-05-25T01:05:42;7.60;;;3.55;;
53646;SDS011;39550;52.230;5.194;2023-05-25T01:10:38;7.63;;;3.45;;
53646;SDS011;39550;52.230;5.194;2023-05-25T01:13:04;5.85;;;2.97;;
53646;SDS011;39550;52.230;5.194;2023-05-25T01:15:31;6.57;;;3.50;;
53646;SDS011;39550;52.230;5.194;2023-05-25T01:17:56;5.63;;;3.38;;
53646;SDS011;39550;52.230;5.194;2023-05-25T01:20:23;6.72;;;3.22;;
53646;SDS011;39550;52.230;5.194;2023-05-25T01:23:03;7.50;;;3.60;;
53646;SDS011;39550;52.230;5.194;2023-05-25T01:25:36;6.05;;;3.10;;
53646;SDS011;39550;52.230;5.194;2023-05-25T01:28:06;6.25;;;3.10;;
53646;SDS011;39550;52.230;5.194;2023-05-25T01:30:35;7.15;;;3.45;;
53646;SDS011;39550;52.230;5.194;2023-05-25T01:33:04;6.20;;;3.75;;
53646;SDS011;39550;52.230;5.194;2023-05-25T01:35:31;5.60;;;2.97;;
53646;SDS011;39550;52.230;5.194;2023-05-25T01:37:57;6.38;;;3.50;;
53646;SDS011;39550;52.230;5.194;2023-05-25T01:40:23;5.55;;;3.20;;
53646;SDS011;39550;52.230;5.194;2023-05-25T01:42:48;6.50;;;3.00;;
53646;SDS011;39550;52.230;5.194;2023-05-25T01:45:13;6.57;;;3.10;;
53646;SDS011;39550;52.230;5.194;2023-05-25T01:52:50;6.32;;;3.33;;
53646;SDS011;39550;52.230;5.194;2023-05-25T01:55:22;5.75;;;3.30;;
53646;SDS011;39550;52.230;5.194;2023-05-25T01:57:51;7.95;;;3.50;;
53646;SDS011;39550;52.230;5.194;2023-05-25T02:00:22;5.65;;;3.30;;
53646;SDS011;39550;52.230;5.194;2023-05-25T02:02:49;8.85;;;3.65;;
53646;SDS011;39550;52.230;5.194;2023-05-25T02:05:17;4.88;;;2.85;;
53646;SDS011;39550;52.230;5.194;2023-05-25T02:07:44;8.35;;;3.40;;
53646;SDS011;39550;52.230;5.194;2023-05-25T02:10:09;5.90;;;3.33;;
53646;SDS011;39550;52.230;5.194;2023-05-25T02:12:35;5.88;;;3.40;;
53646;SDS011;39550;52.230;5.194;2023-05-25T02:15:00;4.47;;;2.70;;
53646;SDS011;39550;52.230;5.194;2023-05-25T02:17:25;6.47;;;3.28;;
53646;SDS011;39550;52.230;5.194;2023-05-25T02:19:51;6.85;;;3.22;;
53646;SDS011;39550;52.230;5.194;2023-05-25T02:22:18;6.60;;;3.22;;
53646;SDS011;39550;52.230;5.194;2023-05-25T02:24:46;5.22;;;3.13;;
53646;SDS011;39550;52.230;5.194;2023-05-25T02:27:12;6.53;;;2.95;;
53646;SDS011;39550;52.230;5.194;2023-05-25T02:29:38;5.03;;;3.00;;
53646;SDS011;39550;52.230;5.194;2023-05-25T02:32:04;5.20;;;3.10;;
53646;SDS011;39550;52.230;5.194;2023-05-25T02:34:30;7.25;;;3.03;;
53646;SDS011;39550;52.230;5.194;2023-05-25T02:36:56;4.82;;;2.90;;
53646;SDS011;39550;52.230;5.194;2023-05-25T02:39:21;4.97;;;3.00;;
53646;SDS011;39550;52.230;5.194;2023-05-25T02:41:47;5.28;;;3.03;;
53646;SDS011;39550;52.230;5.194;2023-05-25T02:44:12;5.43;;;2.92;;
53646;SDS011;39550;52.230;5.194;2023-05-25T02:46:37;5.35;;;3.15;;
53646;SDS011;39550;52.230;5.194;2023-05-25T02:49:03;5.57;;;2.88;;
53646;SDS011;39550;52.230;5.194;2023-05-25T02:51:29;6.20;;;3.35;;
53646;SDS011;39550;52.230;5.194;2023-05-25T02:53:54;5.68;;;3.30;;
53646;SDS011;39550;52.230;5.194;2023-05-25T02:56:20;5.45;;;2.97;;
53646;SDS011;39550;52.230;5.194;2023-05-25T02:58:47;6.32;;;3.15;;
53646;SDS011;39550;52.230;5.194;2023-05-25T03:01:12;5.22;;;3.25;;
53646;SDS011;39550;52.230;5.194;2023-05-25T03:03:42;7.35;;;3.67;;
53646;SDS011;39550;52.230;5.194;2023-05-25T03:06:11;7.15;;;3.35;;
53646;SDS011;39550;52.230;5.194;2023-05-25T03:08:38;5.43;;;3.40;;
53646;SDS011;39550;52.230;5.194;2023-05-25T03:11:05;5.97;;;3.72;;
53646;SDS011;39550;52.230;5.194;2023-05-25T03:13:30;6.15;;;3.38;;
53646;SDS011;39550;52.230;5.194;2023-05-25T03:15:56;5.00;;;2.92;;
53646;SDS011;39550;52.230;5.194;2023-05-25T03:18:21;6.45;;;3.10;;
53646;SDS011;39550;52.230;5.194;2023-05-25T03:20:46;5.63;;;2.67;;
53646;SDS011;39550;52.230;5.194;2023-05-25T03:23:12;5.68;;;3.20;;
53646;SDS011;39550;52.230;5.194;2023-05-25T03:25:37;6.30;;;3.28;;
53646;SDS011;39550;52.230;5.194;2023-05-25T03:28:02;7.10;;;3.58;;
53646;SDS011;39550;52.230;5.194;2023-05-25T03:30:28;5.65;;;2.97;;
53646;SDS011;39550;52.230;5.194;2023-05-25T03:32:54;6.13;;;3.17;;
53646;SDS011;39550;52.230;5.194;2023-05-25T03:35:19;6.50;;;3.40;;
53646;SDS011;39550;52.230;5.194;2023-05-25T03:37:45;6.18;;;3.10;;
53646;SDS011;39550;52.230;5.194;2023-05-25T03:40:10;4.75;;;2.90;;
53646;SDS011;39550;52.230;5.194;2023-05-25T03:42:36;6.18;;;2.80;;
53646;SDS011;39550;52.230;5.194;2023-05-25T03:45:01;4.53;;;2.80;;
53646;SDS011;39550;52.230;5.194;2023-05-25T03:47:27;7.45;;;3.25;;
53646;SDS011;39550;52.230;5.194;2023-05-25T03:49:52;7.03;;;2.80;;
53646;SDS011;39550;52.230;5.194;2023-05-25T03:52:18;7.05;;;3.42;;
53646;SDS011;39550;52.230;5.194;2023-05-25T03:54:43;5.80;;;3.33;;
53646;SDS011;39550;52.230;5.194;2023-05-25T03:57:08;6.45;;;3.15;;
53646;SDS011;39550;52.230;5.194;2023-05-25T03:59:34;5.55;;;3.00;;
53646;SDS011;39550;52.230;5.194;2023-05-25T04:01:59;6.15;;;2.95;;
53646;SDS011;39550;52.230;5.194;2023-05-25T04:04:26;5.47;;;3.08;;
53646;SDS011;39550;52.230;5.194;2023-05-25T04:06:52;6.35;;;3.05;;
53646;SDS011;39550;52.230;5.194;2023-05-25T04:09:18;6.80;;;3.13;;
53646;SDS011;39550;52.230;5.194;2023-05-25T04:11:43;5.50;;;3.13;;
53646;SDS011;39550;52.230;5.194;2023-05-25T04:14:09;6.47;;;3.20;;
53646;SDS011;39550;52.230;5.194;2023-05-25T04:16:35;5.43;;;3.05;;
53646;SDS011;39550;52.230;5.194;2023-05-25T04:19:00;5.18;;;3.20;;
53646;SDS011;39550;52.230;5.194;2023-05-25T04:21:26;7.00;;;3.50;;
53646;SDS011;39550;52.230;5.194;2023-05-25T04:23:51;7.43;;;3.20;;
53646;SDS011;39550;52.230;5.194;2023-05-25T04:26:16;6.88;;;2.88;;
53646;SDS011;39550;52.230;5.194;2023-05-25T04:28:42;6.90;;;3.17;;
53646;SDS011;39550;52.230;5.194;2023-05-25T04:31:08;6.18;;;3.15;;
53646;SDS011;39550;52.230;5.194;2023-05-25T04:33:33;5.30;;;3.05;;
53646;SDS011;39550;52.230;5.194;2023-05-25T04:36:05;5.68;;;2.60;;
53646;SDS011;39550;52.230;5.194;2023-05-25T04:38:31;6.03;;;3.07;;
53646;SDS011;39550;52.230;5.194;2023-05-25T04:40:57;5.40;;;3.08;;
53646;SDS011;39550;52.230;5.194;2023-05-25T04:43:23;5.97;;;3.03;;
53646;SDS011;39550;52.230;5.194;2023-05-25T04:45:50;4.93;;;2.90;;
53646;SDS011;39550;52.230;5.194;2023-05-25T04:48:16;5.68;;;3.05;;
53646;SDS011;39550;52.230;5.194;2023-05-25T04:50:42;5.65;;;3.08;;
53646;SDS011;39550;52.230;5.194;2023-05-25T04:53:07;4.80;;;2.50;;
53646;SDS011;39550;52.230;5.194;2023-05-25T04:55:32;5.28;;;2.70;;
53646;SDS011;39550;52.230;5.194;2023-05-25T04:57:58;5.00;;;3.00;;
53646;SDS011;39550;52.230;5.194;2023-05-25T05:00:23;4.78;;;2.92;;
53646;SDS011;39550;52.230;5.194;2023-05-25T05:02:49;6.30;;;3.20;;
53646;SDS011;39550;52.230;5.194;2023-05-25T05:05:15;4.82;;;2.60;;
53646;SDS011;39550;52.230;5.194;2023-05-25T05:07:41;6.25;;;3.05;;
53646;SDS011;39550;52.230;5.194;2023-05-25T05:10:06;5.63;;;2.92;;
53646;SDS011;39550;52.230;5.194;2023-05-25T05:12:32;5.82;;;2.97;;
53646;SDS011;39550;52.230;5.194;2023-05-25T05:14:57;6.00;;;3.25;;
53646;SDS011;39550;52.230;5.194;2023-05-25T05:17:23;5.53;;;2.80;;
53646;SDS011;39550;52.230;5.194;2023-05-25T05:19:50;5.70;;;2.90;;
53646;SDS011;39550;52.230;5.194;2023-05-25T05:22:15;6.55;;;3.30;;
53646;SDS011;39550;52.230;5.194;2023-05-25T05:24:41;5.15;;;2.65;;
53646;SDS011;39550;52.230;5.194;2023-05-25T05:27:06;5.85;;;3.05;;
53646;SDS011;39550;52.230;5.194;2023-05-25T05:29:32;4.93;;;3.17;;
53646;SDS011;39550;52.230;5.194;2023-05-25T05:31:58;7.97;;;3.75;;
53646;SDS011;39550;52.230;5.194;2023-05-25T05:34:24;5.63;;;3.08;;
53646;SDS011;39550;52.230;5.194;2023-05-25T05:36:50;7.20;;;3.17;;
53646;SDS011;39550;52.230;5.194;2023-05-25T05:39:15;5.03;;;2.75;;
53646;SDS011;39550;52.230;5.194;2023-05-25T05:41:40;6.45;;;3.22;;
53646;SDS011;39550;52.230;5.194;2023-05-25T05:44:09;6.32;;;3.40;;
53646;SDS011;39550;52.230;5.194;2023-05-25T05:46:34;6.70;;;3.20;;
53646;SDS011;39550;52.230;5.194;2023-05-25T05:49:01;6.68;;;3.53;;
53646;SDS011;39550;52.230;5.194;2023-05-25T05:51:26;6.80;;;3.60;;
53646;SDS011;39550;52.230;5.194;2023-05-25T05:53:51;5.90;;;3.33;;
53646;SDS011;39550;52.230;5.194;2023-05-25T05:56:17;6.60;;;3.88;;
53646;SDS011;39550;52.230;5.194;2023-05-25T05:58:43;7.20;;;3.70;;
53646;SDS011;39550;52.230;5.194;2023-05-25T06:01:09;6.82;;;3.22;;
53646;SDS011;39550;52.230;5.194;2023-05-25T06:03:34;6.43;;;3.38;;
53646;SDS011;39550;52.230;5.194;2023-05-25T06:06:00;5.80;;;3.38;;
53646;SDS011;39550;52.230;5.194;2023-05-25T06:08:25;7.28;;;3.33;;
53646;SDS011;39550;52.230;5.194;2023-05-25T06:10:51;6.20;;;3.40;;
53646;SDS011;39550;52.230;5.194;2023-05-25T06:13:16;8.23;;;3.42;;
53646;SDS011;39550;52.230;5.194;2023-05-25T06:15:42;6.20;;;3.53;;
53646;SDS011;39550;52.230;5.194;2023-05-25T06:18:07;8.48;;;3.92;;
53646;SDS011;39550;52.230;5.194;2023-05-25T06:20:33;8.73;;;3.78;;
53646;SDS011;39550;52.230;5.194;2023-05-25T06:22:59;10.40;;;3.92;;
53646;SDS011;39550;52.230;5.194;2023-05-25T06:25:24;8.48;;;3.65;;
53646;SDS011;39550;52.230;5.194;2023-05-25T06:27:50;9.48;;;3.53;;
53646;SDS011;39550;52.230;5.194;2023-05-25T06:30:15;7.10;;;3.92;;
53646;SDS011;39550;52.230;5.194;2023-05-25T06:32:40;11.82;;;3.97;;
53646;SDS011;39550;52.230;5.194;2023-05-25T06:35:07;10.45;;;4.03;;
53646;SDS011;39550;52.230;5.194;2023-05-25T06:37:33;8.23;;;3.60;;
53646;SDS011;39550;52.230;5.194;2023-05-25T06:40:05;12.30;;;4.00;;
53646;SDS011;39550;52.230;5.194;2023-05-25T06:42:34;6.93;;;3.70;;
53646;SDS011;39550;52.230;5.194;2023-05-25T06:44:59;7.80;;;3.40;;
53646;SDS011;39550;52.230;5.194;2023-05-25T06:47:25;8.60;;;3.67;;
53646;SDS011;39550;52.230;5.194;2023-05-25T06:49:50;9.70;;;3.80;;
53646;SDS011;39550;52.230;5.194;2023-05-25T06:52:15;9.15;;;3.70;;
53646;SDS011;39550;52.230;5.194;2023-05-25T06:54:41;7.28;;;3.05;;
53646;SDS011;39550;52.230;5.194;2023-05-25T06:57:06;7.22;;;3.65;;
53646;SDS011;39550;52.230;5.194;2023-05-25T06:59:31;6.72;;;3.15;;
53646;SDS011;39550;52.230;5.194;2023-05-25T07:01:57;7.78;;;3.75;;
53646;SDS011;39550;52.230;5.194;2023-05-25T07:04:23;20.33;;;3.60;;
53646;SDS011;39550;52.230;5.194;2023-05-25T07:06:49;7.15;;;3.33;;
53646;SDS011;39550;52.230;5.194;2023-05-25T07:09:16;7.03;;;3.40;;
53646;SDS011;39550;52.230;5.194;2023-05-25T07:11:46;7.40;;;3.40;;
53646;SDS011;39550;52.230;5.194;2023-05-25T07:14:11;7.13;;;3.53;;
53646;SDS011;39550;52.230;5.194;2023-05-25T07:16:36;5.60;;;2.80;;
53646;SDS011;39550;52.230;5.194;2023-05-25T07:19:02;6.80;;;2.90;;
53646;SDS011;39550;52.230;5.194;2023-05-25T07:21:29;5.05;;;3.20;;
53646;SDS011;39550;52.230;5.194;2023-05-25T07:23:56;7.63;;;3.00;;
53646;SDS011;39550;52.230;5.194;2023-05-25T07:26:22;5.10;;;2.83;;
53646;SDS011;39550;52.230;5.194;2023-05-25T07:28:49;6.50;;;2.92;;
53646;SDS011;39550;52.230;5.194;2023-05-25T07:31:15;7.10;;;4.05;;
53646;SDS011;39550;52.230;5.194;2023-05-25T07:33:40;6.28;;;3.35;;
53646;SDS011;39550;52.230;5.194;2023-05-25T07:36:05;7.55;;;3.50;;
53646;SDS011;39550;52.230;5.194;2023-05-25T07:38:31;5.65;;;3.47;;
53646;SDS011;39550;52.230;5.194;2023-05-25T07:40:56;7.43;;;3.47;;
53646;SDS011;39550;52.230;5.194;2023-05-25T07:43:22;5.22;;;3.05;;
53646;SDS011;39550;52.230;5.194;2023-05-25T07:45:47;5.88;;;2.95;;
53646;SDS011;39550;52.230;5.194;2023-05-25T07:48:12;5.80;;;3.40;;
53646;SDS011;39550;52.230;5.194;2023-05-25T07:50:38;5.53;;;3.30;;
53646;SDS011;39550;52.230;5.194;2023-05-25T07:53:03;5.28;;;2.92;;
53646;SDS011;39550;52.230;5.194;2023-05-25T07:55:28;6.30;;;3.40;;
53646;SDS011;39550;52.230;5.194;2023-05-25T07:57:54;7.55;;;3.20;;
53646;SDS011;39550;52.230;5.194;2023-05-25T08:00:19;5.88;;;3.13;;
53646;SDS011;39550;52.230;5.194;2023-05-25T08:02:45;6.60;;;3.60;;
53646;SDS011;39550;52.230;5.194;2023-05-25T08:05:10;7.57;;;3.40;;
53646;SDS011;39550;52.230;5.194;2023-05-25T08:07:36;6.15;;;3.30;;
53646;SDS011;39550;52.230;5.194;2023-05-25T08:10:02;7.05;;;3.38;;
53646;SDS011;39550;52.230;5.194;2023-05-25T08:12:28;6.85;;;3.00;;
53646;SDS011;39550;52.230;5.194;2023-05-25T08:14:53;7.35;;;3.45;;
53646;SDS011;39550;52.230;5.194;2023-05-25T08:17:19;6.72;;;3.35;;
53646;SDS011;39550;52.230;5.194;2023-05-25T08:19:45;6.40;;;3.78;;
53646;SDS011;39550;52.230;5.194;2023-05-25T08:22:10;7.43;;;3.20;;
53646;SDS011;39550;52.230;5.194;2023-05-25T08:24:36;5.72;;;3.47;;
53646;SDS011;39550;52.230;5.194;2023-05-25T08:27:01;6.97;;;3.10;;
53646;SDS011;39550;52.230;5.194;2023-05-25T08:29:27;6.45;;;3.28;;
53646;SDS011;39550;52.230;5.194;2023-05-25T08:31:52;6.88;;;3.47;;
53646;SDS011;39550;52.230;5.194;2023-05-25T08:34:18;6.57;;;3.35;;
53646;SDS011;39550;52.230;5.194;2023-05-25T08:36:43;6.45;;;3.25;;
53646;SDS011;39550;52.230;5.194;2023-05-25T08:39:09;8.25;;;3.65;;
53646;SDS011;39550;52.230;5.194;2023-05-25T08:41:35;9.13;;;3.05;;
53646;SDS011;39550;52.230;5.194;2023-05-25T08:44:04;8.50;;;3.58;;
53646;SDS011;39550;52.230;5.194;2023-05-25T08:46:32;5.50;;;2.70;;
53646;SDS011;39550;52.230;5.194;2023-05-25T08:48:59;5.55;;;2.95;;
53646;SDS011;39550;52.230;5.194;2023-05-25T08:51:35;6.10;;;3.17;;
53646;SDS011;39550;52.230;5.194;2023-05-25T08:54:06;4.97;;;2.53;;
53646;SDS011;39550;52.230;5.194;2023-05-25T08:56:35;7.00;;;3.05;;
53646;SDS011;39550;52.230;5.194;2023-05-25T08:59:25;5.13;;;2.63;;
53646;SDS011;39550;52.230;5.194;2023-05-25T09:01:51;5.07;;;3.25;;
53646;SDS011;39550;52.230;5.194;2023-05-25T09:04:20;5.82;;;3.35;;
53646;SDS011;39550;52.230;5.194;2023-05-25T09:06:47;5.35;;;2.78;;
53646;SDS011;39550;52.230;5.194;2023-05-25T09:09:12;6.68;;;2.90;;
53646;SDS011;39550;52.230;5.194;2023-05-25T09:11:41;5.05;;;3.08;;
53646;SDS011;39550;52.230;5.194;2023-05-25T09:14:08;7.10;;;2.90;;
53646;SDS011;39550;52.230;5.194;2023-05-25T09:16:35;6.28;;;3.20;;
53646;SDS011;39550;52.230;5.194;2023-05-25T09:19:02;6.93;;;3.28;;
53646;SDS011;39550;52.230;5.194;2023-05-25T09:21:27;5.65;;;2.67;;
53646;SDS011;39550;52.230;5.194;2023-05-25T09:23:52;5.15;;;2.83;;
53646;SDS011;39550;52.230;5.194;2023-05-25T09:26:18;5.97;;;3.72;;
53646;SDS011;39550;52.230;5.194;2023-05-25T09:28:44;6.75;;;3.33;;
53646;SDS011;39550;52.230;5.194;2023-05-25T09:31:11;6.88;;;3.03;;
53646;SDS011;39550;52.230;5.194;2023-05-25T09:33:37;7.00;;;3.00;;
53646;SDS011;39550;52.230;5.194;2023-05-25T09:36:03;5.47;;;2.55;;
53646;SDS011;39550;52.230;5.194;2023-05-25T09:38:30;4.47;;;2.63;;
53646;SDS011;39550;52.230;5.194;2023-05-25T09:40:56;6.68;;;3.20;;
53646;SDS011;39550;52.230;5.194;2023-05-25T09:43:22;6.88;;;2.88;;
53646;SDS011;39550;52.230;5.194;2023-05-25T09:45:47;5.18;;;2.92;;
53646;SDS011;39550;52.230;5.194;2023-05-25T09:48:12;6.68;;;3.03;;
53646;SDS011;39550;52.230;5.194;2023-05-25T09:50:38;5.40;;;3.00;;
53646;SDS011;39550;52.230;5.194;2023-05-25T09:53:03;5.90;;;2.90;;
53646;SDS011;39550;52.230;5.194;2023-05-25T09:55:28;6.68;;;3.00;;
53646;SDS011;39550;52.230;5.194;2023-05-25T09:57:55;6.35;;;3.35;;
53646;SDS011;39550;52.230;5.194;2023-05-25T10:00:21;5.00;;;2.97;;
53646;SDS011;39550;52.230;5.194;2023-05-25T10:02:48;5.07;;;3.13;;
53646;SDS011;39550;52.230;5.194;2023-05-25T10:05:13;6.65;;;2.95;;
53646;SDS011;39550;52.230;5.194;2023-05-25T10:07:39;4.85;;;2.85;;
53646;SDS011;39550;52.230;5.194;2023-05-25T10:10:06;6.20;;;3.10;;
53646;SDS011;39550;52.230;5.194;2023-05-25T10:12:34;5.85;;;2.92;;
53646;SDS011;39550;52.230;5.194;2023-05-25T10:15:01;5.65;;;3.05;;
53646;SDS011;39550;52.230;5.194;2023-05-25T10:17:28;4.95;;;2.83;;
53646;SDS011;39550;52.230;5.194;2023-05-25T10:19:57;8.55;;;3.40;;
53646;SDS011;39550;52.230;5.194;2023-05-25T10:27:51;6.85;;;3.38;;
53646;SDS011;39550;52.230;5.194;2023-05-25T10:30:21;6.05;;;3.15;;
53646;SDS011;39550;52.230;5.194;2023-05-25T10:32:51;6.53;;;3.28;;
53646;SDS011;39550;52.230;5.194;2023-05-25T10:35:24;6.55;;;3.20;;
53646;SDS011;39550;52.230;5.194;2023-05-25T10:37:51;7.97;;;3.47;;
53646;SDS011;39550;52.230;5.194;2023-05-25T10:40:20;5.38;;;3.03;;
53646;SDS011;39550;52.230;5.194;2023-05-25T10:42:49;6.78;;;3.40;;
53646;SDS011;39550;52.230;5.194;2023-05-25T10:45:15;7.65;;;3.30;;
53646;SDS011;39550;52.230;5.194;2023-05-25T10:47:42;5.75;;;3.17;;
53646;SDS011;39550;52.230;5.194;2023-05-25T10:53:06;7.78;;;4.03;;
53646;SDS011;39550;52.230;5.194;2023-05-25T10:55:42;7.07;;;3.60;;
53646;SDS011;39550;52.230;5.194;2023-05-25T10:58:14;4.78;;;2.83;;
53646;SDS011;39550;52.230;5.194;2023-05-25T11:00:41;7.82;;;3.38;;
53646;SDS011;39550;52.230;5.194;2023-05-25T11:03:07;6.55;;;3.30;;
53646;SDS011;39550;52.230;5.194;2023-05-25T11:05:37;6.70;;;3.40;;
53646;SDS011;39550;52.230;5.194;2023-05-25T11:08:07;7.13;;;3.50;;
53646;SDS011;39550;52.230;5.194;2023-05-25T11:10:43;6.47;;;3.22;;
53646;SDS011;39550;52.230;5.194;2023-05-25T11:19:04;8.07;;;3.58;;
53646;SDS011;39550;52.230;5.194;2023-05-25T11:21:39;6.95;;;3.42;;
53646;SDS011;39550;52.230;5.194;2023-05-25T11:24:13;5.47;;;3.50;;
53646;SDS011;39550;52.230;5.194;2023-05-25T11:26:53;7.80;;;3.72;;
53646;SDS011;39550;52.230;5.194;2023-05-25T11:29:22;6.40;;;3.53;;
53646;SDS011;39550;52.230;5.194;2023-05-25T11:31:53;5.78;;;3.42;;
53646;SDS011;39550;52.230;5.194;2023-05-25T11:34:22;4.90;;;3.00;;
53646;SDS011;39550;52.230;5.194;2023-05-25T11:36:56;6.00;;;3.30;;
53646;SDS011;39550;52.230;5.194;2023-05-25T11:39:25;7.43;;;3.47;;
53646;SDS011;39550;52.230;5.194;2023-05-25T11:41:53;6.32;;;3.35;;
53646;SDS011;39550;52.230;5.194;2023-05-25T11:44:26;8.33;;;3.87;;
53646;SDS011;39550;52.230;5.194;2023-05-25T11:47:00;8.30;;;3.75;;
53646;SDS011;39550;52.230;5.194;2023-05-25T11:49:34;7.85;;;3.40;;
53646;SDS011;39550;52.230;5.194;2023-05-25T11:52:03;7.72;;;3.30;;
53646;SDS011;39550;52.230;5.194;2023-05-25T11:54:32;12.27;;;4.05;;
53646;SDS011;39550;52.230;5.194;2023-05-25T11:56:58;8.45;;;3.25;;
53646;SDS011;39550;52.230;5.194;2023-05-25T11:59:25;7.22;;;3.47;;
53646;SDS011;39550;52.230;5.194;2023-05-25T12:01:58;6.57;;;3.75;;
53646;SDS011;39550;52.230;5.194;2023-05-25T12:04:25;5.78;;;3.05;;
53646;SDS011;39550;52.230;5.194;2023-05-25T12:06:51;6.07;;;3.40;;
53646;SDS011;39550;52.230;5.194;2023-05-25T12:09:20;5.38;;;3.00;;
53646;SDS011;39550;52.230;5.194;2023-05-25T12:11:46;7.93;;;3.40;;
53646;SDS011;39550;52.230;5.194;2023-05-25T12:14:12;7.25;;;3.45;;
53646;SDS011;39550;52.230;5.194;2023-05-25T12:16:38;6.10;;;3.25;;
53646;SDS011;39550;52.230;5.194;2023-05-25T12:19:05;6.60;;;3.65;;
53646;SDS011;39550;52.230;5.194;2023-05-25T12:21:31;6.25;;;3.63;;
53646;SDS011;39550;52.230;5.194;2023-05-25T12:23:57;7.60;;;3.70;;
53646;SDS011;39550;52.230;5.194;2023-05-25T12:26:23;10.32;;;3.63;;
53646;SDS011;39550;52.230;5.194;2023-05-25T12:29:02;7.30;;;3.40;;
53646;SDS011;39550;52.230;5.194;2023-05-25T12:31:32;9.40;;;3.28;;
53646;SDS011;39550;52.230;5.194;2023-05-25T12:34:09;10.65;;;3.83;;
53646;SDS011;39550;52.230;5.194;2023-05-25T12:39:13;7.50;;;3.33;;
53646;SDS011;39550;52.230;5.194;2023-05-25T12:41:46;12.98;;;3.75;;
53646;SDS011;39550;52.230;5.194;2023-05-25T12:44:17;10.57;;;3.97;;
53646;SDS011;39550;52.230;5.194;2023-05-25T12:46:43;8.25;;;3.47;;
53646;SDS011;39550;52.230;5.194;2023-05-25T12:49:22;9.07;;;3.90;;
53646;SDS011;39550;52.230;5.194;2023-05-25T12:51:52;11.07;;;3.80;;
53646;SDS011;39550;52.230;5.194;2023-05-25T12:57:12;7.82;;;3.35;;
53646;SDS011;39550;52.230;5.194;2023-05-25T12:59:45;10.13;;;4.38;;
53646;SDS011;39550;52.230;5.194;2023-05-25T13:02:12;8.68;;;3.70;;
53646;SDS011;39550;52.230;5.194;2023-05-25T13:04:39;7.00;;;3.80;;
53646;SDS011;39550;52.230;5.194;2023-05-25T13:07:06;6.97;;;3.80;;
53646;SDS011;39550;52.230;5.194;2023-05-25T13:09:33;11.63;;;3.88;;
53646;SDS011;39550;52.230;5.194;2023-05-25T13:11:59;9.23;;;3.83;;
53646;SDS011;39550;52.230;5.194;2023-05-25T13:14:26;7.93;;;3.85;;
53646;SDS011;39550;52.230;5.194;2023-05-25T13:16:53;8.38;;;4.10;;
53646;SDS011;39550;52.230;5.194;2023-05-25T13:19:21;10.07;;;3.40;;
53646;SDS011;39550;52.230;5.194;2023-05-25T13:21:48;7.65;;;3.63;;
53646;SDS011;39550;52.230;5.194;2023-05-25T13:24:15;14.23;;;4.03;;
53646;SDS011;39550;52.230;5.194;2023-05-25T13:26:41;10.38;;;4.10;;
53646;SDS011;39550;52.230;5.194;2023-05-25T13:29:09;12.05;;;4.53;;
53646;SDS011;39550;52.230;5.194;2023-05-25T13:31:34;9.60;;;3.42;;
53646;SDS011;39550;52.230;5.194;2023-05-25T13:33:59;9.35;;;3.70;;
53646;SDS011;39550;52.230;5.194;2023-05-25T13:36:25;10.38;;;4.05;;
53646;SDS011;39550;52.230;5.194;2023-05-25T13:38:50;8.35;;;4.22;;
53646;SDS011;39550;52.230;5.194;2023-05-25T13:41:15;8.15;;;3.97;;
53646;SDS011;39550;52.230;5.194;2023-05-25T13:43:42;8.55;;;4.10;;
53646;SDS011;39550;52.230;5.194;2023-05-25T13:46:07;9.38;;;4.25;;
53646;SDS011;39550;52.230;5.194;2023-05-25T13:48:32;8.63;;;3.38;;
53646;SDS011;39550;52.230;5.194;2023-05-25T13:50:58;10.68;;;4.63;;
53646;SDS011;39550;52.230;5.194;2023-05-25T13:53:24;8.13;;;4.32;;
53646;SDS011;39550;52.230;5.194;2023-05-25T13:55:49;9.48;;;4.10;;
53646;SDS011;39550;52.230;5.194;2023-05-25T13:58:14;9.35;;;4.28;;
53646;SDS011;39550;52.230;5.194;2023-05-25T14:00:40;10.48;;;4.03;;
53646;SDS011;39550;52.230;5.194;2023-05-25T14:03:05;11.70;;;4.28;;
53646;SDS011;39550;52.230;5.194;2023-05-25T14:05:30;9.15;;;4.07;;
53646;SDS011;39550;52.230;5.194;2023-05-25T14:07:56;12.18;;;3.88;;
53646;SDS011;39550;52.230;5.194;2023-05-25T14:10:24;9.90;;;4.73;;
53646;SDS011;39550;52.230;5.194;2023-05-25T14:12:50;9.85;;;4.13;;
53646;SDS011;39550;52.230;5.194;2023-05-25T14:15:15;10.40;;;4.72;;
53646;SDS011;39550;52.230;5.194;2023-05-25T14:17:40;13.90;;;5.18;;
53646;SDS011;39550;52.230;5.194;2023-05-25T14:20:06;11.02;;;4.03;;
53646;SDS011;39550;52.230;5.194;2023-05-25T14:22:31;10.15;;;4.43;;
53646;SDS011;39550;52.230;5.194;2023-05-25T14:24:57;8.82;;;3.65;;
53646;SDS011;39550;52.230;5.194;2023-05-25T14:27:22;11.75;;;4.10;;
53646;SDS011;39550;52.230;5.194;2023-05-25T14:29:48;9.13;;;4.13;;
53646;SDS011;39550;52.230;5.194;2023-05-25T14:32:15;10.02;;;4.25;;
53646;SDS011;39550;52.230;5.194;2023-05-25T14:34:41;9.95;;;3.83;;
53646;SDS011;39550;52.230;5.194;2023-05-25T14:37:08;15.45;;;4.68;;
53646;SDS011;39550;52.230;5.194;2023-05-25T14:39:33;8.07;;;3.97;;
53646;SDS011;39550;52.230;5.194;2023-05-25T14:42:00;12.25;;;4.18;;
53646;SDS011;39550;52.230;5.194;2023-05-25T14:44:28;13.67;;;4.37;;
53646;SDS011;39550;52.230;5.194;2023-05-25T14:46:54;11.52;;;4.07;;
53646;SDS011;39550;52.230;5.194;2023-05-25T14:49:19;9.68;;;4.18;;
53646;SDS011;39550;52.230;5.194;2023-05-25T14:51:52;13.07;;;4.13;;
53646;SDS011;39550;52.230;5.194;2023-05-25T14:54:18;10.52;;;4.90;;
53646;SDS011;39550;52.230;5.194;2023-05-25T14:56:43;10.55;;;3.80;;
53646;SDS011;39550;52.230;5.194;2023-05-25T14:59:08;9.50;;;4.00;;
53646;SDS011;39550;52.230;5.194;2023-05-25T15:01:34;10.63;;;4.57;;
53646;SDS011;39550;52.230;5.194;2023-05-25T15:04:00;11.23;;;4.57;;
53646;SDS011;39550;52.230;5.194;2023-05-25T15:06:25;10.95;;;4.00;;
53646;SDS011;39550;52.230;5.194;2023-05-25T15:08:50;16.23;;;4.88;;
53646;SDS011;39550;52.230;5.194;2023-05-25T15:11:16;12.77;;;4.28;;